Time;durP1;ratioP1;P1;durP2;ratioP2;P2;SDS_P1;SDS_P2;PMS_P1;PMS_P2;Temp;Humidity;BMP_temperature;BMP_pressure;BME280_temperature;BME280_humidity;BME280_pressure;Samples;Min_cycle;Max_cycle;Signal;HPM_P1;HPM_P2
2022/08/10 00:00:33;;;;;;;;;7.00;6.00;;;;;24.01;87.16;101682.41;5036691;28;45469;-83
2022/08/10 00:02:59;;;;;;;;;4.67;4.33;;;;;24.15;87.57;101729.25;5020169;28;45541;-81
2022/08/10 00:05:26;;;;;;;;;6.33;5.00;;;;;24.21;87.28;101726.47;5029499;28;45799;-83
2022/08/10 00:07:53;;;;;;;;;5.00;4.00;;;;;24.18;87.50;101729.81;5037625;28;47008;-82
2022/08/10 00:10:20;;;;;;;;;6.33;4.00;;;;;24.14;87.83;101735.97;5051021;28;45426;-81
2022/08/10 00:12:46;;;;;;;;;6.67;4.00;;;;;23.93;88.24;101700.63;5017924;28;45846;-83
2022/08/10 00:15:15;;;;;;;;;4.67;3.67;;;;;23.94;88.17;101699.50;5019826;28;45438;-83
2022/08/10 00:17:41;;;;;;;;;4.00;3.33;;;;;24.07;88.53;101743.81;5017681;28;46023;-83
2022/08/10 00:20:08;;;;;;;;;2.67;2.67;;;;;24.03;88.75;101731.47;5022583;28;45407;-82
2022/08/10 00:22:37;;;;;;;;;5.67;5.00;;;;;23.99;89.63;101735.94;5023205;28;45371;-82
2022/08/10 00:25:03;;;;;;;;;12.33;9.00;;;;;23.89;89.32;101707.88;5029478;28;46227;-81
2022/08/10 00:27:29;;;;;;;;;3.00;3.00;;;;;23.88;89.62;101711.81;5037459;28;47647;-81
2022/08/10 00:29:55;;;;;;;;;6.00;4.67;;;;;23.89;89.75;101716.28;5039234;28;45351;-80
2022/08/10 00:32:21;;;;;;;;;4.67;4.00;;;;;23.94;90.01;101728.34;5020898;28;45816;-81
2022/08/10 00:34:47;;;;;;;;;6.00;4.00;;;;;23.90;89.97;101726.38;5030085;28;45871;-79
2022/08/10 00:37:16;;;;;;;;;4.00;4.00;;;;;23.76;90.37;101715.66;5038735;28;46813;-82
2022/08/10 00:39:42;;;;;;;;;6.33;4.00;;;;;23.83;90.60;101728.56;5038632;28;45752;-80
2022/08/10 00:42:09;;;;;;;;;6.00;5.00;;;;;23.66;91.02;101704.41;5036155;28;45459;-83
2022/08/10 00:44:40;;;;;;;;;5.33;4.33;;;;;23.53;91.04;101682.50;5040337;28;45175;-81
2022/08/10 00:47:07;;;;;;;;;7.00;5.67;;;;;23.67;91.37;101705.25;5038050;28;45654;-81
2022/08/10 00:49:34;;;;;;;;;9.67;6.00;;;;;23.56;91.20;101690.38;5027804;28;44848;-83
2022/08/10 00:52:00;;;;;;;;;5.00;5.00;;;;;23.71;91.14;101717.59;5029909;28;44770;-84
2022/08/10 00:54:27;;;;;;;;;6.00;5.00;;;;;23.62;90.76;101703.28;5030309;28;44813;-85
2022/08/10 00:56:53;;;;;;;;;5.67;4.00;;;;;23.59;91.24;101706.63;5029651;28;47087;-85
2022/08/10 00:59:19;;;;;;;;;7.67;4.67;;;;;23.72;90.97;101716.47;5038854;28;45243;-83
2022/08/10 01:01:44;;;;;;;;;7.67;5.67;;;;;23.71;90.89;101718.47;5028757;28;44745;-82
2022/08/10 01:04:10;;;;;;;;;6.00;4.00;;;;;23.69;91.11;101708.63;5038418;28;45011;-80
2022/08/10 01:06:57;;;;;;;;;4.00;4.00;;;;;23.69;91.02;101711.44;5044793;28;46670;-82
2022/08/10 01:09:58;;;;;;;;;5.00;5.00;;;;;23.67;91.25;101717.31;5044162;28;44825;-81
2022/08/10 01:12:33;;;;;;;;;5.67;4.00;;;;;23.66;91.62;101710.00;5041428;28;45783;-81
2022/08/10 01:15:11;;;;;;;;;3.00;3.00;;;;;23.62;91.73;101706.94;5036770;28;45656;-86
2022/08/10 01:17:57;;;;;;;;;5.00;4.33;;;;;23.61;91.81;101721.22;5046714;28;46074;-84
2022/08/10 01:20:44;;;;;;;;;4.33;4.00;;;;;23.61;91.99;101707.22;5045873;28;46135;-86
2022/08/10 01:23:25;;;;;;;;;7.67;6.00;;;;;23.60;92.24;101711.94;5036587;28;45464;-86
2022/08/10 01:26:09;;;;;;;;;3.67;3.67;;;;;23.59;92.22;101701.88;5044890;28;45476;-85
2022/08/10 01:28:47;;;;;;;;;8.00;4.33;;;;;23.59;92.90;101703.81;5044183;28;45861;-88
2022/08/10 01:31:19;;;;;;;;;7.33;5.00;;;;;23.57;93.21;101711.66;5030303;28;45361;-79
2022/08/10 01:33:54;;;;;;;;;10.67;6.67;;;;;23.52;93.48;101709.69;5019910;28;45429;-79
2022/08/10 01:36:27;;;;;;;;;5.00;5.00;;;;;23.38;94.13;101697.28;5028162;28;45632;-82
2022/08/10 01:39:00;;;;;;;;;5.67;5.00;;;;;23.39;94.52;101694.22;5036708;28;45702;-83
2022/08/10 01:41:39;;;;;;;;;5.33;5.33;;;;;23.37;94.49;101687.19;5038179;28;45716;-82
2022/08/10 01:44:18;;;;;;;;;5.00;5.00;;;;;23.30;94.69;101681.84;5008766;28;45363;-82
2022/08/10 01:46:51;;;;;;;;;5.00;4.00;;;;;23.34;94.91;101682.13;5032348;28;47294;-84
2022/08/10 01:49:21;;;;;;;;;2.33;2.33;;;;;23.38;95.45;101692.53;5033539;28;46973;-83
2022/08/10 01:51:56;;;;;;;;;5.00;5.00;;;;;23.39;95.42;101694.22;5034711;28;45369;-86
2022/08/10 01:54:25;;;;;;;;;5.33;4.67;;;;;23.13;95.88;101664.41;5026729;28;45404;-79
2022/08/10 01:56:57;;;;;;;;;3.00;3.00;;;;;23.30;96.01;101698.66;5031351;28;46162;-78
2022/08/10 01:59:29;;;;;;;;;3.33;3.33;;;;;23.21;96.34;101686.28;5021269;28;46134;-78
2022/08/10 02:02:01;;;;;;;;;5.00;5.00;;;;;23.20;96.48;101690.19;5007344;28;45373;-81
2022/08/10 02:04:31;;;;;;;;;6.00;5.00;;;;;23.22;96.63;101702.81;5016373;28;45869;-78
2022/08/10 02:07:00;;;;;;;;;4.67;4.67;;;;;23.10;96.89;101679.78;5027777;28;45379;-79
2022/08/10 02:09:32;;;;;;;;;4.00;4.00;;;;;23.12;97.32;101690.72;5021273;28;45368;-79
2022/08/10 02:12:02;;;;;;;;;5.33;5.33;;;;;23.11;97.28;101689.84;5024957;28;45906;-83
2022/08/10 02:14:37;;;;;;;;;7.67;5.00;;;;;22.94;97.33;101673.22;5032834;28;45368;-83
2022/08/10 02:17:08;;;;;;;;;5.33;4.00;;;;;23.02;97.76;101688.66;5033674;28;45834;-83
2022/08/10 02:19:37;;;;;;;;;5.00;5.00;;;;;22.94;98.44;101690.00;5030898;28;46453;-79
2022/08/10 02:22:05;;;;;;;;;6.00;5.00;;;;;22.97;98.50;101700.66;5027047;28;45835;-79
2022/08/10 02:24:33;;;;;;;;;2.33;2.33;;;;;22.94;98.75;101697.56;5003032;28;45746;-79
2022/08/10 02:26:59;;;;;;;;;4.00;4.00;;;;;22.83;99.11;101689.09;5014254;28;45974;-81
2022/08/10 02:29:27;;;;;;;;;4.00;4.00;;;;;22.89;99.62;101701.16;5014283;28;47759;-83
2022/08/10 02:31:54;;;;;;;;;5.33;5.33;;;;;22.76;99.88;101682.06;5017047;28;45338;-82
2022/08/10 02:34:22;;;;;;;;;4.00;4.00;;;;;22.71;99.88;101689.28;5024868;28;45516;-82
2022/08/10 02:36:53;;;;;;;;;5.00;5.00;;;;;22.82;100.00;101706.97;5027052;28;45627;-82
2022/08/10 02:39:22;;;;;;;;;6.33;4.00;;;;;22.74;100.00;101682.31;5013337;28;47697;-81
2022/08/10 02:42:11;;;;;;;;;3.67;3.33;;;;;22.63;100.00;101672.16;5014253;28;45545;-81
2022/08/10 02:45:05;;;;;;;;;3.00;3.00;;;;;22.78;100.00;101697.44;5032596;28;45450;-83
2022/08/10 02:47:40;;;;;;;;;6.33;5.00;;;;;22.71;100.00;101694.00;5026480;28;45935;-82
2022/08/10 02:50:18;;;;;;;;;6.00;4.00;;;;;22.68;100.00;101695.41;5009013;28;47170;-81
2022/08/10 02:52:47;;;;;;;;;5.00;5.00;;;;;22.73;100.00;101703.00;5032149;28;45531;-81
2022/08/10 02:55:58;;;;;;;;;4.00;4.00;;;;;22.69;100.00;101708.25;5024952;28;45671;-83
2022/08/10 02:58:50;;;;;;;;;5.00;4.00;;;;;22.65;100.00;101690.38;4981523;28;45557;-80
2022/08/10 03:01:20;;;;;;;;;5.00;5.00;;;;;22.63;100.00;101698.16;5025625;28;46267;-83
2022/08/10 03:04:06;;;;;;;;;4.00;4.00;;;;;22.61;100.00;101708.78;5020690;28;45726;-82
2022/08/10 03:06:38;;;;;;;;;7.33;5.67;;;;;22.55;100.00;101719.06;5019489;28;45431;-82
2022/08/10 03:09:07;;;;;;;;;5.00;4.00;;;;;22.47;100.00;101700.00;5020778;28;46211;-82
2022/08/10 03:11:38;;;;;;;;;9.67;6.33;;;;;22.47;100.00;101693.53;5027095;28;47627;-83
2022/08/10 03:14:07;;;;;;;;;3.33;3.33;;;;;22.48;100.00;101704.47;5030297;28;44781;-81
2022/08/10 03:16:33;;;;;;;;;5.00;4.00;;;;;22.22;100.00;101667.03;5031606;28;45443;-82
2022/08/10 03:19:05;;;;;;;;;5.00;5.00;;;;;22.48;100.00;101703.63;5025746;28;45487;-81
2022/08/10 03:21:32;;;;;;;;;3.33;3.33;;;;;22.41;100.00;101694.59;5017173;28;46915;-80
2022/08/10 03:24:01;;;;;;;;;4.33;4.00;;;;;22.46;100.00;101698.31;5018492;28;45727;-82
2022/08/10 03:26:30;;;;;;;;;6.67;5.00;;;;;22.43;100.00;101698.84;5024512;28;45313;-82
2022/08/10 03:28:58;;;;;;;;;5.00;5.00;;;;;22.43;100.00;101692.41;5044694;28;45410;-83
2022/08/10 03:31:27;;;;;;;;;8.00;6.33;;;;;22.42;100.00;101691.53;5031770;28;45417;-81
2022/08/10 03:33:54;;;;;;;;;5.00;4.00;;;;;22.39;100.00;101694.88;5018949;28;45801;-82
2022/08/10 03:36:19;;;;;;;;;7.67;5.00;;;;;22.20;100.00;101672.03;5013793;28;44817;-82
2022/08/10 03:38:50;;;;;;;;;7.33;6.33;;;;;22.16;100.00;101654.94;5014934;28;45679;-81
2022/08/10 03:41:24;;;;;;;;;5.33;5.33;;;;;22.22;100.00;101681.84;5014924;28;46778;-82
2022/08/10 03:43:51;;;;;;;;;6.33;6.33;;;;;22.28;100.00;101696.69;5014765;28;46591;-81
2022/08/10 03:46:20;;;;;;;;;8.00;6.33;;;;;22.25;100.00;101691.66;5015022;28;45586;-82
2022/08/10 03:48:50;;;;;;;;;7.33;4.33;;;;;22.30;100.00;101705.66;5012808;28;45952;-79
2022/08/10 03:51:18;;;;;;;;;5.67;4.00;;;;;22.29;100.00;101704.00;5012849;28;45502;-76
2022/08/10 03:53:52;;;;;;;;;8.67;6.33;;;;;22.18;100.00;101693.81;5012715;28;45792;-78
2022/08/10 03:56:19;;;;;;;;;10.00;8.00;;;;;22.24;100.00;101709.50;5012575;28;45771;-76
2022/08/10 03:58:46;;;;;;;;;8.33;7.33;;;;;22.12;100.00;101694.88;5013861;28;45800;-76
2022/08/10 04:01:14;;;;;;;;;5.33;5.33;;;;;22.14;100.00;101693.50;5012899;28;46328;-77
2022/08/10 04:03:39;;;;;;;;;6.67;5.00;;;;;22.19;100.00;101701.09;5013381;28;45474;-78
2022/08/10 04:06:05;;;;;;;;;10.00;8.33;;;;;22.13;100.00;101688.19;5013197;28;45484;-76
2022/08/10 04:08:31;;;;;;;;;11.33;6.00;;;;;22.07;100.00;101678.06;5011315;28;46422;-77
2022/08/10 04:10:57;;;;;;;;;5.33;5.33;;;;;21.99;100.00;101674.63;5013242;28;47737;-83
2022/08/10 04:13:22;;;;;;;;;11.33;6.33;;;;;22.13;100.00;101704.94;5013956;28;45848;-82
2022/08/10 04:15:48;;;;;;;;;5.33;5.33;;;;;22.10;100.00;101697.09;5017001;28;45556;-82
2022/08/10 04:18:14;;;;;;;;;12.67;8.33;;;;;22.06;100.00;101704.31;5017355;28;45445;-83
2022/08/10 04:20:44;;;;;;;;;5.00;4.33;;;;;22.06;100.00;101704.31;5014891;28;46338;-82
2022/08/10 04:23:20;;;;;;;;;12.00;6.67;;;;;21.98;100.00;101689.69;5013336;28;45709;-83
2022/08/10 04:25:46;;;;;;;;;7.00;5.67;;;;;21.96;100.00;101688.25;5015641;28;45511;-83
2022/08/10 04:28:12;;;;;;;;;8.33;4.33;;;;;22.04;100.00;101707.34;5015131;28;46739;-77
2022/08/10 04:30:39;;;;;;;;;7.33;6.33;;;;;21.93;100.00;101688.78;5013972;28;48080;-77
2022/08/10 04:33:07;;;;;;;;;7.33;4.67;;;;;21.93;100.00;101689.66;5016688;28;45368;-77
2022/08/10 04:35:34;;;;;;;;;7.00;6.33;;;;;21.83;100.00;101679.19;5019356;28;45396;-77
2022/08/10 04:38:02;;;;;;;;;6.00;4.00;;;;;22.02;100.00;101704.84;5015387;28;46350;-80
2022/08/10 04:40:27;;;;;;;;;5.00;5.00;;;;;21.96;100.00;101694.72;5019577;28;46404;-77
2022/08/10 04:42:53;;;;;;;;;10.33;7.00;;;;;22.06;100.00;101713.50;5004956;28;45439;-78
2022/08/10 04:45:18;;;;;;;;;7.00;5.67;;;;;22.16;100.00;101710.00;5018545;28;45487;-77
2022/08/10 04:47:46;;;;;;;;;6.33;4.33;;;;;22.27;100.00;101710.94;5014928;28;47157;-77
2022/08/10 04:50:11;;;;;;;;;8.33;6.33;;;;;22.43;100.00;101718.41;5015489;28;47709;-77
2022/08/10 04:52:37;;;;;;;;;9.00;5.00;;;;;22.58;100.00;101714.06;5018049;28;45498;-78
2022/08/10 04:55:03;;;;;;;;;4.67;4.67;;;;;22.70;100.00;101695.97;5018089;28;45432;-77
2022/08/10 04:57:28;;;;;;;;;8.33;8.00;;;;;23.08;100.00;101713.63;5029272;28;45328;-79
2022/08/10 04:59:54;;;;;;;;;6.67;6.67;;;;;23.36;100.00;101716.31;5017203;28;46333;-81
2022/08/10 05:02:19;;;;;;;;;9.00;8.00;;;;;23.61;100.00;101724.84;5018139;28;45799;-78
2022/08/10 05:04:45;;;;;;;;;8.00;6.00;;;;;23.89;100.00;101714.34;5017593;28;45491;-78
2022/08/10 05:07:14;;;;;;;;;8.33;7.33;;;;;24.33;99.75;101725.09;5017763;28;45644;-77
2022/08/10 05:09:42;;;;;;;;;10.33;6.67;;;;;24.64;97.67;101715.88;5017496;28;47435;-78
2022/08/10 05:12:08;;;;;;;;;7.00;6.67;;;;;25.24;94.15;101729.28;5018170;28;45810;-78
2022/08/10 05:14:34;;;;;;;;;6.67;5.00;;;;;25.62;91.22;101726.97;5021043;28;45317;-79
2022/08/10 05:16:59;;;;;;;;;9.33;5.00;;;;;26.02;87.29;101725.13;5023475;28;45516;-77
2022/08/10 05:19:28;;;;;;;;;6.67;4.33;;;;;26.39;83.13;101699.28;5021525;28;45592;-79
2022/08/10 05:21:53;;;;;;;;;6.00;6.00;;;;;27.03;78.71;101704.91;5018667;28;45723;-79
2022/08/10 05:24:19;;;;;;;;;5.00;5.00;;;;;27.35;73.61;101677.28;5018506;28;45574;-82
2022/08/10 05:26:45;;;;;;;;;7.67;6.00;;;;;28.10;70.16;101726.50;5020142;28;45820;-81
2022/08/10 05:29:11;;;;;;;;;5.00;5.00;;;;;28.28;66.33;101699.44;5021346;28;45432;-79
2022/08/10 05:31:36;;;;;;;;;7.00;5.33;;;;;29.02;63.48;101733.47;5027833;28;45320;-81
2022/08/10 05:34:02;;;;;;;;;5.33;5.00;;;;;29.39;60.11;101709.06;5037810;28;45571;-80
2022/08/10 05:36:28;;;;;;;;;9.00;7.33;;;;;29.82;56.83;101712.75;5037354;28;45344;-82
2022/08/10 05:38:57;;;;;;;;;6.67;5.67;;;;;30.29;55.79;101744.50;5036800;28;45523;-82
2022/08/10 05:41:24;;;;;;;;;10.00;9.33;;;;;30.80;52.89;101726.25;5036840;28;44719;-80
2022/08/10 05:43:50;;;;;;;;;6.00;6.00;;;;;31.42;50.59;101730.25;5049731;28;44840;-82
2022/08/10 05:46:15;;;;;;;;;7.33;6.00;;;;;31.77;48.49;101732.41;5037575;28;45248;-80
2022/08/10 05:48:41;;;;;;;;;12.00;7.00;;;;;32.18;47.04;101734.84;5050548;28;45497;-79
2022/08/10 05:51:08;;;;;;;;;9.00;7.00;;;;;32.40;45.66;101713.16;5039692;28;45374;-81
2022/08/10 05:53:35;;;;;;;;;6.50;5.75;;;;;32.89;43.63;101733.66;5042857;28;45384;-82
2022/08/10 05:56:02;;;;;;;;;4.75;4.75;;;;;33.13;43.46;101722.88;5045881;28;44822;-81
2022/08/10 05:58:28;;;;;;;;;8.50;6.50;;;;;33.80;41.41;101741.19;5040955;28;47032;-80
2022/08/10 06:00:59;;;;;;;;;4.50;4.50;;;;;34.40;40.08;101741.94;5037814;28;45362;-81
2022/08/10 06:03:33;;;;;;;;;5.00;4.67;;;;;34.80;38.88;101732.06;5032360;28;44791;-80
2022/08/10 06:06:02;;;;;;;;;6.00;6.00;;;;;35.22;37.29;101734.75;5021761;28;45362;-80
2022/08/10 06:08:31;;;;;;;;;10.00;6.00;;;;;35.43;36.27;101731.00;5052494;28;45574;-80
2022/08/10 06:11:00;;;;;;;;;7.33;7.33;;;;;35.97;35.80;101736.44;5051340;28;45159;-81
2022/08/10 06:16:16;;;;;;;;;7.25;7.00;;;;;36.75;34.19;101734.34;5036835;28;44797;-79
2022/08/10 06:18:42;;;;;;;;;6.50;6.50;;;;;37.33;32.57;101721.59;5053447;28;46242;-82
2022/08/10 06:21:11;;;;;;;;;9.00;7.00;;;;;37.72;31.63;101735.25;5047907;28;45767;-82
2022/08/10 06:23:38;;;;;;;;;5.50;2.50;;;;;38.04;31.00;101736.00;5029259;28;45406;-81
2022/08/10 06:26:06;;;;;;;;;7.50;5.75;;;;;38.45;30.01;101736.50;5046262;28;45982;-82
2022/08/10 06:28:36;;;;;;;;;5.50;5.50;;;;;38.68;29.81;101736.56;5034334;28;47439;-80
2022/08/10 06:31:11;;;;;;;;;7.50;6.75;;;;;38.98;29.23;101740.81;5032408;28;45324;-82
2022/08/10 06:33:39;;;;;;;;;7.25;6.00;;;;;39.44;28.22;101722.81;5030508;28;45768;-78
2022/08/10 06:36:15;;;;;;;;;7.50;5.75;;;;;39.70;27.70;101711.38;5029121;28;46235;-80
2022/08/10 06:38:41;;;;;;;;;6.50;5.00;;;;;39.97;26.55;101727.72;5026274;28;45725;-79
2022/08/10 06:41:14;;;;;;;;;11.00;6.75;;;;;40.05;26.96;101743.91;5019044;28;45554;-78
2022/08/10 06:43:46;;;;;;;;;6.50;5.50;;;;;40.05;27.01;101720.91;5020129;28;45386;-78
2022/08/10 06:46:15;;;;;;;;;8.00;5.25;;;;;40.18;25.98;101738.72;5010271;28;45755;-77
2022/08/10 06:48:55;;;;;;;;;5.75;5.75;;;;;40.43;26.35;101736.16;5049160;28;45933;-78
2022/08/10 06:51:24;;;;;;;;;7.00;7.00;;;;;40.59;25.64;101739.69;5034527;28;45360;-77
2022/08/10 06:53:55;;;;;;;;;6.75;5.50;;;;;40.49;25.27;101751.88;5030652;28;45718;-77
2022/08/10 06:56:26;;;;;;;;;8.25;7.00;;;;;40.40;25.55;101742.69;5024579;28;45693;-78
2022/08/10 06:58:56;;;;;;;;;7.00;4.75;;;;;40.04;25.24;101747.97;5031696;28;47618;-77
2022/08/10 07:01:27;;;;;;;;;5.00;4.75;;;;;39.86;25.98;101747.69;5034393;28;45576;-78
2022/08/10 07:04:01;;;;;;;;;5.00;5.00;;;;;39.66;25.88;101741.22;5030377;28;45728;-78
2022/08/10 07:06:28;;;;;;;;;4.75;4.75;;;;;39.65;25.64;101720.28;5026322;28;45520;-80
2022/08/10 07:08:55;;;;;;;;;6.25;6.25;;;;;39.83;26.02;101740.66;5033930;28;46194;-82
2022/08/10 07:11:22;;;;;;;;;5.00;5.00;;;;;40.09;25.81;101752.56;5034921;28;45324;-81
2022/08/10 07:13:48;;;;;;;;;5.00;4.75;;;;;40.30;25.66;101749.13;5036431;28;45853;-77
2022/08/10 07:16:17;;;;;;;;;6.50;6.50;;;;;40.48;25.10;101741.59;5033786;28;45722;-79
2022/08/10 07:18:46;;;;;;;;;9.33;8.00;;;;;40.54;25.25;101742.91;5021624;28;46780;-80
2022/08/10 07:21:22;;;;;;;;;7.00;6.00;;;;;40.66;25.18;101752.47;5033547;28;45445;-83
2022/08/10 07:23:50;;;;;;;;;7.67;6.33;;;;;40.67;24.91;101729.06;5024226;28;45463;-81
2022/08/10 07:26:38;;;;;;;;;11.33;5.00;;;;;41.03;24.46;101752.50;5017889;28;46505;-80
2022/08/10 07:29:06;;;;;;;;;8.00;6.25;;;;;41.14;24.60;101737.38;5016041;28;45423;-80
2022/08/10 07:31:35;;;;;;;;;8.25;7.00;;;;;41.36;24.09;101735.56;5036055;28;45466;-82
2022/08/10 07:34:03;;;;;;;;;7.00;5.75;;;;;41.42;23.85;101739.72;5022793;28;45572;-79
2022/08/10 07:36:30;;;;;;;;;7.25;5.00;;;;;41.35;23.63;101700.19;5002266;28;45712;-80
2022/08/10 07:38:59;;;;;;;;;8.33;7.33;;;;;41.72;23.44;101744.47;5015149;28;45431;-81
2022/08/10 07:41:29;;;;;;;;;5.33;5.00;;;;;41.77;23.31;101744.09;5025307;28;45519;-82
2022/08/10 07:44:01;;;;;;;;;7.25;6.25;;;;;42.03;23.18;101740.16;5031095;28;45720;-81
2022/08/10 07:46:40;;;;;;;;;6.00;6.00;;;;;42.12;23.47;101705.22;5018278;28;45194;-78
2022/08/10 07:49:12;;;;;;;;;5.25;4.50;;;;;42.85;23.12;101748.34;5014019;28;46385;-81
2022/08/10 07:51:38;;;;;;;;;6.00;5.33;;;;;43.17;22.35;101733.16;5016041;28;45345;-78
2022/08/10 07:54:14;;;;;;;;;6.00;6.00;;;;;43.59;21.79;101758.75;5013035;28;45479;-81
2022/08/10 07:56:42;;;;;;;;;7.67;7.67;;;;;43.95;21.37;101756.63;5017345;28;45697;-82
2022/08/10 07:59:17;;;;;;;;;9.33;8.00;;;;;44.28;21.12;101748.69;5001028;28;48622;-79
2022/08/10 08:01:49;;;;;;;;;9.67;7.00;;;;;44.70;20.85;101734.47;5011232;28;45396;-79
2022/08/10 08:04:23;;;;;;;;;9.33;5.67;;;;;45.16;20.38;101756.50;5014244;28;45460;-79
2022/08/10 08:06:51;;;;;;;;;5.25;5.25;;;;;45.18;19.64;101753.19;5012879;28;45977;-79
2022/08/10 08:09:19;;;;;;;;;6.00;6.00;;;;;45.13;19.85;101737.91;5013341;28;45483;-80
2022/08/10 08:11:45;;;;;;;;;5.33;5.33;;;;;45.48;19.53;101755.41;5017023;28;45396;-83
2022/08/10 08:14:13;;;;;;;;;8.00;6.67;;;;;45.49;19.62;101739.69;5014385;28;45469;-79
2022/08/10 08:16:46;;;;;;;;;9.00;7.00;;;;;45.61;19.81;101715.16;5014745;28;45939;-82
2022/08/10 08:19:13;;;;;;;;;8.00;6.00;;;;;45.97;19.71;101747.47;5012346;28;46968;-79
2022/08/10 08:21:40;;;;;;;;;7.00;7.00;;;;;46.16;19.15;101730.69;5013658;28;45352;-81
2022/08/10 08:24:08;;;;;;;;;7.33;6.00;;;;;45.92;18.75;101700.72;5013898;28;45427;-80
2022/08/10 08:26:35;;;;;;;;;6.00;6.00;;;;;45.70;19.33;101738.66;5013731;28;45714;-81
2022/08/10 08:29:02;;;;;;;;;7.67;7.00;;;;;45.04;19.80;101722.28;5011518;28;48061;-81
2022/08/10 08:31:31;;;;;;;;;8.00;7.00;;;;;44.16;20.33;101726.00;5014536;28;45352;-80
2022/08/10 08:33:59;;;;;;;;;7.33;7.33;;;;;43.96;20.27;101731.44;5014860;28;45462;-81
2022/08/10 08:36:26;;;;;;;;;9.33;6.33;;;;;44.07;20.29;101714.88;5016349;28;45971;-83
2022/08/10 08:38:52;;;;;;;;;7.50;7.00;;;;;44.47;19.85;101726.31;5030018;28;45370;-82
2022/08/10 08:41:36;;;;;;;;;4.00;4.00;;;;;44.95;19.93;101722.72;5033684;28;45451;-79
2022/08/10 08:44:04;;;;;;;;;6.67;6.67;;;;;45.58;19.47;101710.22;5032274;28;45757;-80
2022/08/10 08:46:48;;;;;;;;;6.00;6.00;;;;;46.10;18.71;101707.16;5032413;28;45965;-79
2022/08/10 08:49:35;;;;;;;;;7.00;7.00;;;;;46.53;18.76;101726.06;5047133;28;47174;-78
2022/08/10 08:52:14;;;;;;;;;5.33;5.33;;;;;46.79;18.01;101717.84;5038047;28;45591;-81
2022/08/10 08:55:04;;;;;;;;;8.00;6.67;;;;;46.96;18.06;101718.84;5050171;28;45494;-83
2022/08/10 08:57:54;;;;;;;;;8.00;6.00;;;;;47.13;17.79;101732.25;5003760;28;45657;-82
2022/08/10 09:00:42;;;;;;;;;6.00;5.00;;;;;47.38;17.56;101723.09;5013278;28;46886;-81
2022/08/10 09:03:45;;;;;;;;;5.00;5.00;;;;;47.95;17.08;101723.28;5014088;28;45338;-83
2022/08/10 09:06:51;;;;;;;;;8.00;7.33;;;;;48.13;17.24;101717.09;5013165;28;45733;-78
2022/08/10 09:09:54;;;;;;;;;7.67;6.00;;;;;48.58;16.84;101716.56;5010735;28;46597;-78
2022/08/10 09:12:44;;;;;;;;;8.67;6.33;;;;;49.13;16.49;101710.22;5002388;28;46322;-78
2022/08/10 09:15:42;;;;;;;;;6.67;6.67;;;;;49.43;15.75;101709.00;4999350;28;45418;-78
2022/08/10 09:18:30;;;;;;;;;7.00;7.00;;;;;49.54;15.73;101705.03;5012540;28;45687;-78
2022/08/10 09:21:13;;;;;;;;;7.00;7.00;;;;;49.58;16.30;101694.88;5024852;28;46292;-77
2022/08/10 09:23:51;;;;;;;;;5.00;5.00;;;;;49.47;15.51;101694.34;5014626;28;45594;-79
2022/08/10 09:26:21;;;;;;;;;5.00;5.00;;;;;49.70;15.38;101702.06;5013776;28;45671;-80
2022/08/10 09:28:50;;;;;;;;;5.67;5.67;;;;;49.87;15.46;101691.13;5015744;28;45773;-79
2022/08/10 09:31:21;;;;;;;;;9.00;8.00;;;;;49.74;15.36;101699.84;5013694;28;45718;-78
2022/08/10 09:34:02;;;;;;;;;7.33;7.00;;;;;49.68;15.93;101692.13;5015423;28;45747;-79
2022/08/10 09:36:41;;;;;;;;;4.00;4.00;;;;;49.78;15.63;101661.81;5003550;28;45377;-78
2022/08/10 09:39:11;;;;;;;;;7.00;7.00;;;;;50.41;15.46;101682.88;5029467;28;45796;-79
2022/08/10 09:41:56;;;;;;;;;8.33;7.33;;;;;50.60;15.18;101678.94;5034813;28;45785;-78
2022/08/10 09:44:40;;;;;;;;;6.00;6.00;;;;;50.69;14.83;101681.97;5033760;28;45772;-79
2022/08/10 09:47:33;;;;;;;;;5.00;4.67;;;;;50.48;14.80;101680.53;5031981;28;45797;-80
2022/08/10 09:50:26;;;;;;;;;5.33;5.00;;;;;50.44;14.71;101670.25;5033197;28;45504;-79
2022/08/10 09:53:23;;;;;;;;;7.00;7.00;;;;;50.82;15.20;101681.16;5012805;28;47044;-83
2022/08/10 09:56:10;;;;;;;;;7.00;6.00;;;;;51.30;14.23;101672.44;5026032;28;47364;-80
2022/08/10 09:58:51;;;;;;;;;7.00;5.67;;;;;51.50;14.91;101678.75;5028859;28;45672;-80
2022/08/10 10:01:26;;;;;;;;;7.00;7.00;;;;;51.55;14.59;101656.88;5033697;28;45361;-79
2022/08/10 10:04:07;;;;;;;;;8.00;6.33;;;;;51.75;14.33;101664.53;5030220;28;45417;-81
2022/08/10 10:06:41;;;;;;;;;5.33;5.33;;;;;51.68;13.75;101666.41;5024582;28;46182;-81
2022/08/10 10:09:33;;;;;;;;;7.00;5.33;;;;;51.20;14.45;101653.94;5015423;28;45464;-79
2022/08/10 10:12:25;;;;;;;;;3.00;3.00;;;;;50.72;14.28;101653.13;5012552;28;45650;-81
2022/08/10 10:15:19;;;;;;;;;4.00;4.00;;;;;50.46;14.35;101658.97;5034150;28;45483;-80
2022/08/10 10:18:06;;;;;;;;;7.00;6.00;;;;;50.51;14.25;101649.59;5037854;28;45731;-83
2022/08/10 10:20:48;;;;;;;;;8.33;7.00;;;;;50.58;14.57;101649.38;5019951;28;45879;-84
2022/08/10 10:23:22;;;;;;;;;5.33;5.33;;;;;50.46;14.39;101624.72;5031318;28;45733;-80
2022/08/10 10:26:01;;;;;;;;;5.67;5.67;;;;;50.40;13.91;101649.97;5033209;28;45406;-80
2022/08/10 10:28:36;;;;;;;;;6.67;6.67;;;;;49.78;14.16;101629.75;5032795;28;46357;-80
2022/08/10 10:31:16;;;;;;;;;6.00;6.00;;;;;49.35;14.31;101640.56;5028823;28;45928;-81
2022/08/10 10:33:57;;;;;;;;;5.33;5.33;;;;;49.00;14.77;101621.94;5019531;28;45796;-84
2022/08/10 10:36:23;;;;;;;;;3.33;3.33;;;;;48.58;14.54;101625.47;5021325;28;47608;-84
2022/08/10 10:38:52;;;;;;;;;6.67;6.67;;;;;48.41;15.24;101619.59;5020881;28;47052;-84
2022/08/10 10:42:22;;;;;;;;;8.67;8.00;;;;;48.72;15.33;101622.22;5005627;28;45773;-84
2022/08/10 10:45:05;;;;;;;;;8.33;6.00;;;;;49.06;15.14;101609.25;4962221;28;45501;-82
2022/08/10 10:47:45;;;;;;;;;6.33;6.33;;;;;48.90;14.66;101621.75;4958584;28;45414;-85
2022/08/10 10:50:48;;;;;;;;;7.00;6.33;;;;;48.48;14.79;101609.94;5011979;28;45888;-83
2022/08/10 10:53:43;;;;;;;;;5.67;5.67;;;;;48.22;15.27;101614.66;5048701;28;45572;-81
2022/08/10 10:56:19;;;;;;;;;6.00;6.00;;;;;48.20;15.14;101611.41;5034075;28;45489;-80
2022/08/10 10:59:16;;;;;;;;;6.00;6.00;;;;;48.25;15.13;101613.75;5034285;28;45461;-84
2022/08/10 11:01:59;;;;;;;;;6.33;6.00;;;;;48.28;14.50;101601.22;5026649;28;45574;-84
2022/08/10 11:04:44;;;;;;;;;7.33;5.00;;;;;47.96;14.19;101593.25;5015972;28;45693;-82
2022/08/10 11:07:48;;;;;;;;;6.00;6.00;;;;;47.48;14.55;101602.13;5018200;28;45335;-84
2022/08/10 11:10:21;;;;;;;;;6.00;6.00;;;;;46.91;14.70;101577.84;5017136;28;45368;-83
2022/08/10 11:13:02;;;;;;;;;7.33;7.33;;;;;46.70;15.08;101596.47;5017618;28;46048;-83
2022/08/10 11:15:35;;;;;;;;;6.33;6.33;;;;;45.79;14.90;101591.13;5017843;28;45720;-83
2022/08/10 11:18:34;;;;;;;;;6.00;6.00;;;;;45.12;15.82;101603.06;5018469;28;45807;-83
2022/08/10 11:21:12;;;;;;;;;7.00;7.00;;;;;44.29;15.91;101576.00;5018712;28;46772;-83
2022/08/10 11:24:19;;;;;;;;;7.33;7.33;;;;;43.27;16.47;101575.59;5032568;28;46133;-84
2022/08/10 11:27:12;;;;;;;;;7.33;7.33;;;;;42.21;17.64;101578.84;4987972;28;44921;-82
2022/08/10 11:29:44;;;;;;;;;6.33;6.33;;;;;41.39;18.26;101547.63;5009307;28;45835;-82
2022/08/10 11:32:22;;;;;;;;;7.00;7.00;;;;;40.62;18.14;101556.06;5016286;28;46726;-86
2022/08/10 11:35:07;;;;;;;;;7.33;6.00;;;;;39.59;19.07;101560.25;5017684;28;45807;-82
2022/08/10 11:37:47;;;;;;;;;6.00;6.00;;;;;38.87;19.54;101564.88;5013539;28;45889;-80
2022/08/10 11:40:42;;;;;;;;;7.00;7.00;;;;;38.00;20.41;101568.97;5014045;28;45395;-80
2022/08/10 11:43:10;;;;;;;;;6.33;6.00;;;;;37.40;21.01;101589.34;4976929;28;47255;-79
2022/08/10 11:45:41;;;;;;;;;7.00;7.00;;;;;36.73;21.40;101559.47;5018220;28;46995;-79
2022/08/10 11:48:33;;;;;;;;;7.67;7.67;;;;;36.20;21.52;101561.69;5020812;28;45830;-80
2022/08/10 11:51:04;;;;;;;;;8.67;8.67;;;;;35.81;22.59;101552.84;5007390;28;45837;-80
2022/08/10 11:54:03;;;;;;;;;9.00;7.67;;;;;35.48;22.23;101565.28;5032012;28;45948;-81
2022/08/10 11:56:38;;;;;;;;;7.67;7.67;;;;;35.11;22.89;101548.22;5028010;28;48026;-80